Terminal Aerodrome Forecast
Issued by NWS Charleston, WV

Home | Current Version | Previous Version | Text Only | Print | Product List | Glossary On
Versions: 1 2 3 4 5 6 7 8 9 10 11 12 13 14 15 16 17 18 19 20 21
000
FTUS41 KRLX 131100
TAFBKW
TAF
KBKW 131135Z 1312/1412 21003KT P6SM SCT090
     FM131500 23008G13KT P6SM BKN050
     FM132000 23008G13KT P6SM VCTS BKN040CB
     FM140200 22004KT 6SM BR BKN050
     FM140800 23005KT 5SM SHRA BR VCTS BKN035CB
     FM141100 24004KT 3SM SHRA BR VCTS OVC015CB=

USA.gov is the U.S. government's official web portal to all federal, state and local government web resources and services.